createdAt,value
2022-10-12T00:01:02.370Z,1.33
2022-10-12T00:03:31.688Z,1.83
2022-10-12T00:06:05.250Z,1.10
2022-10-12T00:08:34.804Z,1.37
2022-10-12T00:11:02.847Z,1.63
2022-10-12T00:13:33.518Z,1.43
2022-10-12T00:16:05.088Z,2.03
2022-10-12T00:18:36.144Z,1.10
2022-10-12T00:21:06.080Z,1.27
2022-10-12T00:23:35.510Z,1.63
2022-10-12T00:26:05.500Z,1.30
2022-10-12T00:28:34.244Z,0.90
2022-10-12T00:31:03.767Z,1.23
2022-10-12T00:33:31.970Z,1.13
2022-10-12T00:36:01.260Z,1.20
2022-10-12T00:38:29.191Z,1.30
2022-10-12T00:40:57.134Z,0.80
2022-10-12T00:43:31.670Z,1.03
2022-10-12T00:46:01.425Z,1.60
2022-10-12T00:48:29.931Z,1.43
2022-10-12T00:51:01.512Z,1.60
2022-10-12T00:53:35.593Z,1.40
2022-10-12T00:56:08.419Z,1.53
2022-10-12T00:58:36.435Z,1.40
2022-10-12T01:01:06.345Z,1.53
2022-10-12T01:03:36.249Z,1.70
2022-10-12T01:06:07.406Z,1.47
2022-10-12T01:08:35.554Z,1.00
2022-10-12T01:11:03.506Z,1.00
2022-10-12T01:13:32.232Z,0.90
2022-10-12T01:16:09.190Z,1.53
2022-10-12T01:18:46.743Z,1.47
2022-10-12T01:21:19.873Z,1.30
2022-10-12T01:24:20.897Z,0.93
2022-10-12T01:27:19.976Z,1.60
2022-10-12T01:30:11.487Z,1.20
2022-10-12T01:32:53.895Z,1.27
2022-10-12T01:35:28.917Z,1.33
2022-10-12T01:38:17.179Z,1.30
2022-10-12T01:40:52.560Z,1.23
2022-10-12T01:43:23.473Z,1.10
2022-10-12T01:45:52.822Z,2.90
2022-10-12T01:48:20.813Z,1.20
2022-10-12T01:50:52.334Z,1.80
2022-10-12T01:53:29.362Z,1.30
2022-10-12T01:56:07.419Z,1.50
2022-10-12T01:58:51.510Z,1.17
2022-10-12T02:01:30.513Z,1.20
2022-10-12T02:04:07.464Z,1.73
2022-10-12T02:06:41.115Z,1.43
2022-10-12T02:09:17.968Z,1.30
2022-10-12T02:11:47.474Z,2.17
2022-10-12T02:14:18.753Z,1.20
2022-10-12T02:16:54.570Z,1.27
2022-10-12T02:19:28.244Z,1.70
2022-10-12T02:22:01.397Z,1.27
2022-10-12T02:24:32.172Z,1.30
2022-10-12T02:27:02.627Z,1.77
2022-10-12T02:29:36.902Z,1.23
2022-10-12T02:32:14.755Z,1.20
2022-10-12T02:34:46.983Z,2.07
2022-10-12T02:37:27.716Z,1.80
2022-10-12T02:40:02.478Z,1.60
2022-10-12T02:42:46.543Z,1.27
2022-10-12T02:45:23.978Z,1.43
2022-10-12T02:47:56.823Z,1.67
2022-10-12T02:50:26.805Z,2.10
2022-10-12T02:52:55.566Z,1.50
2022-10-12T02:55:23.532Z,1.00
2022-10-12T02:57:51.523Z,1.73
2022-10-12T03:00:20.102Z,2.00
2022-10-12T03:02:48.058Z,1.40
2022-10-12T03:05:17.622Z,1.30
2022-10-12T03:07:45.530Z,1.30
2022-10-12T03:10:13.497Z,1.90
2022-10-12T03:12:41.446Z,1.70
2022-10-12T03:15:10.203Z,1.40
2022-10-12T03:17:38.373Z,1.43
2022-10-12T03:20:08.000Z,1.50
2022-10-12T03:22:37.328Z,1.60
2022-10-12T03:25:06.275Z,1.30
2022-10-12T03:27:34.243Z,1.43
2022-10-12T03:30:02.255Z,1.70
2022-10-12T03:32:30.173Z,1.70
2022-10-12T03:34:58.130Z,1.67
2022-10-12T03:37:26.096Z,1.60
2022-10-12T03:39:55.356Z,1.33
2022-10-12T03:42:23.295Z,1.40
2022-10-12T03:44:51.526Z,1.90
2022-10-12T03:47:19.435Z,1.40
2022-10-12T03:49:47.367Z,1.63
2022-10-12T03:52:15.511Z,1.40
2022-10-12T03:54:43.452Z,2.63
2022-10-12T03:57:12.777Z,1.63
2022-10-12T03:59:40.740Z,1.67
2022-10-12T04:02:11.982Z,1.50
2022-10-12T04:04:42.412Z,2.00
2022-10-12T04:07:10.619Z,2.13
2022-10-12T04:09:38.716Z,2.10
2022-10-12T04:12:07.250Z,1.47
2022-10-12T04:14:36.559Z,1.43
2022-10-12T04:17:04.982Z,1.80
2022-10-12T04:19:33.007Z,2.03
2022-10-12T04:22:00.954Z,1.73
2022-10-12T04:24:28.962Z,1.20
2022-10-12T04:26:56.902Z,2.43
2022-10-12T04:29:24.843Z,1.23
2022-10-12T04:31:54.133Z,1.40
2022-10-12T04:34:22.207Z,1.30
2022-10-12T04:36:50.687Z,1.17
2022-10-12T04:39:18.648Z,1.10
2022-10-12T04:41:46.578Z,1.70
2022-10-12T04:44:14.521Z,1.60
2022-10-12T04:46:42.498Z,1.80
2022-10-12T04:49:12.322Z,2.50
2022-10-12T04:51:40.525Z,1.80
2022-10-12T04:54:08.485Z,2.00
2022-10-12T04:56:36.423Z,1.90
2022-10-12T04:59:04.617Z,1.47
2022-10-12T05:01:32.688Z,1.60
2022-10-12T05:04:01.325Z,2.07
2022-10-12T05:06:30.656Z,1.70
2022-10-12T05:08:58.646Z,1.33
2022-10-12T05:11:29.614Z,1.50
2022-10-12T05:13:57.863Z,1.70
2022-10-12T05:16:25.985Z,1.93
2022-10-12T05:18:53.934Z,1.77
2022-10-12T05:21:21.868Z,1.50
2022-10-12T05:23:53.818Z,1.60
2022-10-12T05:26:21.830Z,2.13
2022-10-12T05:28:49.864Z,2.07
2022-10-12T05:31:17.980Z,2.33
2022-10-12T05:33:45.947Z,1.60
2022-10-12T05:36:16.334Z,1.60
2022-10-12T05:38:44.298Z,2.23
2022-10-12T05:41:13.621Z,1.37
2022-10-12T05:43:41.872Z,1.40
2022-10-12T05:46:14.215Z,1.50
2022-10-12T05:48:42.514Z,1.63
2022-10-12T05:51:10.561Z,1.37
2022-10-12T05:53:38.632Z,1.60
2022-10-12T05:56:07.596Z,1.30
2022-10-12T05:58:37.071Z,1.33
2022-10-12T06:01:10.439Z,1.70
2022-10-12T06:03:38.683Z,1.80
2022-10-12T06:06:11.956Z,2.03
2022-10-12T06:08:45.530Z,1.50
2022-10-12T06:11:13.703Z,1.63
2022-10-12T06:13:43.061Z,1.50
2022-10-12T06:16:11.362Z,1.40
2022-10-12T06:18:39.345Z,1.50
2022-10-12T06:21:32.368Z,1.43
2022-10-12T06:23:55.431Z,1.27
2022-10-12T06:26:24.749Z,1.63
2022-10-12T06:28:54.091Z,1.50
2022-10-12T06:31:22.675Z,1.60
2022-10-12T06:33:50.918Z,1.60
2022-10-12T06:36:18.986Z,2.47
2022-10-12T06:38:49.855Z,1.70
2022-10-12T06:41:17.914Z,1.43
2022-10-12T06:43:49.030Z,1.80
2022-10-12T06:46:18.374Z,1.77
2022-10-12T06:48:46.323Z,1.37
2022-10-12T06:51:14.282Z,1.50
2022-10-12T06:53:42.245Z,1.90
2022-10-12T06:56:11.751Z,1.13
2022-10-12T06:58:43.684Z,1.10
2022-10-12T07:01:11.764Z,1.90
2022-10-12T07:03:41.134Z,1.27
2022-10-12T07:06:12.195Z,1.10
2022-10-12T07:08:41.081Z,1.40
2022-10-12T07:11:12.343Z,1.50
2022-10-12T07:13:40.428Z,1.00
2022-10-12T07:16:09.365Z,1.70
2022-10-12T07:18:37.383Z,1.03
2022-10-12T07:21:08.252Z,1.30
2022-10-12T07:23:40.177Z,1.50
2022-10-12T07:26:10.557Z,1.00
2022-10-12T07:28:38.775Z,1.10
2022-10-12T07:31:09.562Z,1.33
2022-10-12T07:33:39.526Z,1.00
2022-10-12T07:36:14.286Z,1.33
2022-10-12T07:38:45.019Z,1.07
2022-10-12T07:41:14.329Z,1.30
2022-10-12T07:43:43.040Z,1.30
2022-10-12T07:46:11.607Z,2.13
2022-10-12T07:48:44.548Z,1.90
2022-10-12T07:51:16.729Z,1.70
2022-10-12T07:53:44.689Z,2.30
2022-10-12T07:56:18.152Z,1.97
2022-10-12T07:58:50.875Z,2.03
2022-10-12T08:01:19.981Z,2.00
2022-10-12T08:03:48.704Z,1.80
2022-10-12T08:06:20.043Z,1.70
2022-10-12T08:08:48.816Z,2.27
2022-10-12T08:11:18.257Z,1.90
2022-10-12T08:13:48.930Z,1.60
2022-10-12T08:16:20.155Z,1.93
2022-10-12T08:18:48.589Z,2.00
2022-10-12T08:21:18.766Z,1.90
2022-10-12T08:23:47.680Z,1.57
2022-10-12T08:26:16.801Z,2.33
2022-10-12T08:28:45.246Z,1.80
2022-10-12T08:31:16.358Z,2.37
2022-10-12T08:33:44.422Z,2.10
2022-10-12T08:36:13.200Z,1.70
2022-10-12T08:38:43.562Z,1.70
2022-10-12T08:41:32.381Z,1.77
2022-10-12T08:44:37.588Z,1.67
2022-10-12T08:47:14.443Z,1.43
2022-10-12T08:49:49.441Z,1.67
2022-10-12T08:52:28.611Z,1.67
2022-10-12T08:55:02.082Z,1.50
2022-10-12T08:57:30.088Z,1.80
2022-10-12T08:59:59.347Z,1.93
2022-10-12T09:06:31.566Z,2.00
2022-10-12T09:09:15.551Z,1.80
2022-10-12T09:12:09.122Z,1.80
2022-10-12T09:14:39.313Z,1.80
2022-10-12T09:17:23.196Z,1.77
2022-10-12T09:20:05.598Z,2.20
2022-10-12T09:22:36.115Z,2.93
2022-10-12T09:25:07.181Z,2.40
2022-10-12T09:27:38.342Z,2.57
2022-10-12T09:30:15.546Z,2.50
2022-10-12T09:33:17.244Z,2.47
2022-10-12T09:35:47.328Z,1.83
2022-10-12T09:38:15.413Z,2.83
2022-10-12T09:40:43.765Z,1.77
2022-10-12T09:43:15.352Z,2.40
2022-10-12T09:45:45.218Z,2.30
2022-10-12T09:48:17.903Z,2.10
2022-10-12T09:50:50.807Z,2.40
2022-10-12T09:53:32.831Z,3.50
2022-10-12T09:56:10.635Z,2.10
2022-10-12T09:58:54.574Z,2.83
2022-10-12T10:01:27.228Z,1.97
2022-10-12T10:04:17.586Z,2.23
2022-10-12T10:06:47.860Z,2.50
2022-10-12T10:09:30.279Z,2.20
2022-10-12T10:11:59.029Z,2.33
2022-10-12T10:14:29.867Z,1.87
2022-10-12T10:16:59.795Z,2.10
2022-10-12T10:19:28.485Z,2.40
2022-10-12T10:21:56.659Z,2.50
2022-10-12T10:24:29.518Z,2.67
2022-10-12T10:26:59.969Z,2.90
2022-10-12T10:29:41.533Z,2.87
2022-10-12T10:32:24.136Z,2.80
2022-10-12T10:35:03.939Z,2.57
2022-10-12T10:37:33.306Z,2.10
2022-10-12T10:40:02.168Z,2.77
2022-10-12T10:42:32.821Z,3.00
2022-10-12T10:45:06.746Z,2.43
2022-10-12T10:47:43.169Z,2.53
2022-10-12T10:50:28.900Z,2.37
2022-10-12T10:53:00.102Z,2.40
2022-10-12T10:55:43.077Z,2.70
2022-10-12T10:58:27.185Z,3.07
2022-10-12T11:01:01.471Z,2.90
2022-10-12T11:03:48.300Z,2.73
2022-10-12T11:06:29.759Z,2.80
2022-10-12T11:09:04.786Z,3.53
2022-10-12T11:11:36.452Z,3.50
2022-10-12T11:14:13.618Z,3.97
2022-10-12T11:16:47.994Z,4.10
2022-10-12T11:19:26.457Z,3.70
2022-10-12T11:21:58.025Z,4.27
2022-10-12T11:24:30.500Z,3.80
2022-10-12T11:27:04.437Z,3.27
2022-10-12T11:29:32.567Z,4.40
2022-10-12T11:32:08.965Z,4.10
2022-10-12T11:34:44.719Z,4.73
2022-10-12T11:37:20.556Z,6.20
2022-10-12T11:39:53.865Z,5.30
2022-10-12T11:42:31.946Z,5.07
2022-10-12T11:45:02.509Z,4.80
2022-10-12T11:47:37.901Z,4.90
2022-10-12T11:50:20.641Z,6.03
2022-10-12T11:52:51.687Z,5.80
2022-10-12T11:55:55.062Z,5.17
2022-10-12T11:58:42.317Z,5.10
2022-10-12T12:01:44.748Z,6.00
2022-10-12T12:04:45.001Z,6.17
2022-10-12T12:07:48.460Z,4.87
2022-10-12T12:10:55.549Z,5.90
2022-10-12T12:13:27.059Z,5.07
2022-10-12T12:16:44.438Z,5.60
2022-10-12T12:19:43.116Z,4.90
2022-10-12T12:22:32.433Z,5.17
2022-10-12T12:25:30.435Z,4.80
2022-10-12T12:28:01.411Z,4.70
2022-10-12T12:30:41.752Z,4.77
2022-10-12T12:33:31.114Z,4.97
2022-10-12T12:36:03.898Z,4.60
2022-10-12T12:38:34.667Z,5.10
2022-10-12T12:41:11.748Z,4.43
2022-10-12T12:44:02.457Z,4.50
2022-10-12T12:47:44.150Z,4.57
2022-10-12T12:50:36.652Z,5.03
2022-10-12T12:53:15.492Z,4.80
2022-10-12T12:56:04.608Z,5.27
2022-10-12T12:58:49.913Z,4.80
2022-10-12T13:01:52.853Z,5.70
2022-10-12T13:04:43.638Z,4.20
2022-10-12T13:07:50.861Z,4.70
2022-10-12T13:10:38.591Z,4.53
2022-10-12T13:13:43.767Z,4.70
2022-10-12T13:17:23.373Z,5.10
2022-10-12T13:19:22.575Z,4.33
2022-10-12T13:21:53.504Z,4.90
2022-10-12T13:24:29.813Z,5.20
2022-10-12T13:27:08.284Z,6.20
2022-10-12T13:29:42.831Z,6.10
2022-10-12T13:32:27.604Z,5.30
2022-10-12T13:35:04.647Z,5.80
2022-10-12T13:37:35.083Z,5.77
2022-10-12T13:40:03.261Z,7.37
2022-10-12T13:42:38.870Z,8.37
2022-10-12T13:45:10.008Z,5.80
2022-10-12T13:47:43.630Z,6.53
2022-10-12T13:50:19.392Z,5.60
2022-10-12T13:52:54.941Z,6.30
2022-10-12T13:55:31.240Z,5.83
2022-10-12T13:58:00.563Z,6.37
2022-10-12T14:00:36.805Z,6.13
2022-10-12T14:03:06.468Z,5.60
2022-10-12T14:05:44.070Z,5.83
2022-10-12T14:08:16.115Z,5.93
2022-10-12T14:10:45.353Z,8.03
2022-10-12T14:13:28.884Z,12.37
2022-10-12T14:15:59.262Z,8.00
2022-10-12T14:18:37.480Z,5.17
2022-10-12T14:21:14.114Z,6.50
2022-10-12T14:23:47.860Z,5.77
2022-10-12T14:26:30.450Z,6.70
2022-10-12T14:29:01.436Z,5.63
2022-10-12T14:31:52.114Z,7.37
2022-10-12T14:34:40.780Z,8.07
2022-10-12T14:37:29.569Z,5.50
2022-10-12T14:40:02.484Z,6.53
2022-10-12T14:42:34.413Z,6.50
2022-10-12T14:45:07.065Z,6.40
2022-10-12T14:47:39.493Z,6.67
2022-10-12T14:50:10.692Z,5.70
2022-10-12T14:52:43.782Z,10.57
2022-10-12T14:55:16.737Z,9.10
2022-10-12T14:57:45.308Z,47.23
2022-10-12T15:00:17.618Z,15.17
2022-10-12T15:02:45.845Z,11.80
2022-10-12T15:05:16.806Z,7.27
2022-10-12T15:07:46.845Z,6.40
2022-10-12T15:10:15.489Z,5.70
2022-10-12T15:12:45.873Z,6.13
2022-10-12T15:15:29.130Z,5.27
2022-10-12T15:17:57.495Z,4.87
2022-10-12T15:20:27.429Z,6.57
2022-10-12T15:22:55.390Z,8.10
2022-10-12T15:25:27.669Z,6.10
2022-10-12T15:27:55.967Z,5.73
2022-10-12T15:30:25.361Z,5.20
2022-10-12T15:32:54.833Z,5.70
2022-10-12T15:35:26.628Z,4.83
2022-10-12T15:37:56.595Z,4.60
2022-10-12T15:40:25.650Z,4.60
2022-10-12T15:42:53.622Z,5.87
2022-10-12T15:45:27.091Z,4.43
2022-10-12T15:47:55.657Z,5.87
2022-10-12T15:50:31.789Z,3.73
2022-10-12T15:52:59.765Z,3.90
2022-10-12T15:55:30.266Z,4.50
2022-10-12T15:57:58.473Z,4.77
2022-10-12T16:00:32.729Z,5.53
2022-10-12T16:03:02.167Z,4.60
2022-10-12T16:05:34.067Z,5.10
2022-10-12T16:08:03.456Z,5.07
2022-10-12T16:10:34.975Z,5.00
2022-10-12T16:13:05.643Z,4.70
2022-10-12T16:15:36.620Z,6.00
2022-10-12T16:18:06.268Z,6.03
2022-10-12T16:20:37.691Z,4.27
2022-10-12T16:23:08.313Z,4.50
2022-10-12T16:25:36.738Z,4.33
2022-10-12T16:28:04.888Z,4.70
2022-10-12T16:30:34.489Z,5.13
2022-10-12T16:33:02.640Z,3.60
2022-10-12T16:35:31.349Z,4.50
2022-10-12T16:38:00.150Z,4.80
2022-10-12T16:40:28.272Z,4.60
2022-10-12T16:42:56.238Z,5.07
2022-10-12T16:45:25.480Z,4.30
2022-10-12T16:47:55.909Z,6.30
2022-10-12T16:50:25.587Z,5.37
2022-10-12T16:52:53.801Z,5.23
2022-10-12T16:55:21.836Z,5.27
2022-10-12T16:57:49.860Z,6.27
2022-10-12T17:00:20.993Z,5.60
2022-10-12T17:02:49.048Z,6.40
2022-10-12T17:05:21.608Z,7.87
2022-10-12T17:07:49.593Z,5.03
2022-10-12T17:10:17.748Z,5.33
2022-10-12T17:12:45.711Z,6.40
2022-10-12T17:15:13.691Z,6.93
2022-10-12T17:17:41.672Z,6.70
2022-10-12T17:20:11.107Z,6.43
2022-10-12T17:22:40.414Z,4.63
2022-10-12T17:25:09.477Z,4.60
2022-10-12T17:27:37.506Z,5.40
2022-10-12T17:30:06.343Z,6.30
2022-10-12T17:32:37.729Z,5.40
2022-10-12T17:35:06.889Z,5.40
2022-10-12T17:37:35.049Z,7.10
2022-10-12T17:40:05.781Z,5.80
2022-10-12T17:42:33.771Z,5.10
2022-10-12T17:45:01.724Z,5.10
2022-10-12T17:47:29.784Z,5.60
2022-10-12T17:49:57.978Z,6.60
2022-10-12T17:52:26.078Z,6.73
2022-10-12T17:54:54.036Z,7.27
2022-10-12T17:57:23.376Z,5.50
2022-10-12T17:59:51.370Z,6.20
2022-10-12T18:02:19.473Z,7.33
2022-10-12T18:04:47.428Z,5.60
2022-10-12T18:07:15.634Z,8.03
2022-10-12T18:09:44.090Z,8.40
2022-10-12T18:12:12.149Z,7.60
2022-10-12T18:14:41.733Z,7.80
2022-10-12T18:17:09.714Z,10.10
2022-10-12T18:19:37.732Z,6.37
2022-10-12T18:22:05.728Z,5.20
2022-10-12T18:24:33.726Z,5.33
2022-10-12T18:27:01.685Z,4.83
2022-10-12T18:29:29.933Z,4.63
2022-10-12T18:31:59.281Z,6.60
2022-10-12T18:34:27.503Z,6.80
2022-10-12T18:36:55.620Z,5.83
2022-10-12T18:39:23.625Z,5.63
2022-10-12T18:41:52.560Z,6.60
2022-10-12T18:44:21.258Z,5.90
2022-10-12T18:46:49.579Z,5.53
2022-10-12T18:49:20.632Z,4.83
2022-10-12T18:51:51.190Z,4.83
2022-10-12T18:54:19.614Z,5.10
2022-10-12T18:56:48.253Z,6.07
2022-10-12T18:59:19.627Z,5.10
2022-10-12T19:01:48.348Z,6.53
2022-10-12T19:04:17.720Z,4.63
2022-10-12T19:06:45.736Z,4.60
2022-10-12T19:09:14.347Z,5.73
2022-10-12T19:11:43.946Z,7.17
2022-10-12T19:14:15.259Z,4.97
2022-10-12T19:16:43.814Z,6.40
2022-10-12T19:19:20.792Z,4.97
2022-10-12T19:21:51.677Z,6.07
2022-10-12T19:24:20.691Z,5.10
2022-10-12T19:26:49.638Z,6.50
2022-10-12T19:29:17.664Z,6.00
2022-10-12T19:31:48.714Z,5.27
2022-10-12T19:34:19.729Z,5.50
2022-10-12T19:36:50.124Z,5.63
2022-10-12T19:39:23.723Z,5.87
2022-10-12T19:41:52.805Z,4.73
2022-10-12T19:44:21.012Z,4.50
2022-10-12T19:46:50.970Z,5.20
2022-10-12T19:49:20.462Z,5.37
2022-10-12T19:51:49.854Z,5.53
2022-10-12T19:54:17.938Z,5.53
2022-10-12T19:56:46.624Z,5.57
2022-10-12T19:59:15.170Z,5.03
2022-10-12T20:01:47.744Z,4.70
2022-10-12T20:04:16.066Z,5.80
2022-10-12T20:06:44.220Z,4.80
2022-10-12T20:09:15.100Z,5.20
2022-10-12T20:11:46.554Z,5.20
2022-10-12T20:14:14.659Z,5.10
2022-10-12T20:16:43.128Z,4.70
2022-10-12T20:19:11.665Z,4.73
2022-10-12T20:21:39.656Z,5.80
2022-10-12T20:24:10.036Z,5.57
2022-10-12T20:26:40.877Z,5.60
2022-10-12T20:29:08.916Z,7.27
2022-10-12T20:31:37.281Z,5.47
2022-10-12T20:34:05.308Z,5.10
2022-10-12T20:36:33.405Z,6.37
2022-10-12T20:39:01.548Z,5.03
2022-10-12T20:41:29.562Z,4.77
2022-10-12T20:44:00.226Z,5.10
2022-10-12T20:46:30.288Z,4.87
2022-10-12T20:49:00.902Z,5.10
2022-10-12T20:51:32.025Z,5.10
2022-10-12T20:54:01.398Z,5.20
2022-10-12T20:56:30.122Z,3.90
2022-10-12T20:59:01.013Z,4.50
2022-10-12T21:01:29.285Z,5.70
2022-10-12T21:03:57.865Z,5.53
2022-10-12T21:06:26.524Z,5.10
2022-10-12T21:08:57.906Z,4.50
2022-10-12T21:11:27.305Z,4.77
2022-10-12T21:13:56.171Z,4.33
2022-10-12T21:16:27.090Z,6.20
2022-10-12T21:18:57.707Z,4.90
2022-10-12T21:21:26.110Z,5.50
2022-10-12T21:23:59.053Z,5.93
2022-10-12T21:26:29.811Z,5.03
2022-10-12T21:28:59.015Z,5.73
2022-10-12T21:31:32.250Z,5.17
2022-10-12T21:34:04.564Z,4.63
2022-10-12T21:36:36.346Z,6.30
2022-10-12T21:39:08.270Z,5.27
2022-10-12T21:41:36.516Z,5.80
2022-10-12T21:44:04.999Z,5.77
2022-10-12T21:46:39.149Z,9.43
2022-10-12T21:49:08.289Z,8.53
2022-10-12T21:51:37.975Z,7.90
2022-10-12T21:54:06.686Z,6.27
2022-10-12T21:56:37.241Z,6.40
2022-10-12T21:59:06.891Z,6.00
2022-10-12T22:01:41.803Z,6.50
2022-10-12T22:04:14.645Z,6.73
2022-10-12T22:06:43.714Z,6.00
2022-10-12T22:09:16.899Z,5.63
2022-10-12T22:11:46.604Z,6.90
2022-10-12T22:14:18.054Z,5.90
2022-10-12T22:16:47.411Z,6.07
2022-10-12T22:19:18.741Z,7.07
2022-10-12T22:21:48.294Z,6.63
2022-10-12T22:24:17.362Z,6.93
2022-10-12T22:26:45.583Z,6.87
2022-10-12T22:29:13.572Z,6.57
2022-10-12T22:31:42.434Z,6.70
2022-10-12T22:34:11.971Z,6.97
2022-10-12T22:36:40.141Z,6.50
2022-10-12T22:39:08.099Z,7.70
2022-10-12T22:41:36.023Z,8.17
2022-10-12T22:44:04.129Z,7.17
2022-10-12T22:46:32.110Z,7.00
2022-10-12T22:49:00.680Z,8.17
2022-10-12T22:51:33.294Z,7.80
2022-10-12T22:54:04.575Z,6.83
2022-10-12T22:56:32.966Z,7.63
2022-10-12T22:59:06.498Z,6.23
2022-10-12T23:01:35.652Z,6.80
2022-10-12T23:04:03.818Z,7.80
2022-10-12T23:06:33.403Z,8.67
2022-10-12T23:09:01.461Z,8.17
2022-10-12T23:11:31.030Z,7.00
2022-10-12T23:13:59.881Z,7.13
2022-10-12T23:16:30.972Z,7.70
2022-10-12T23:19:01.332Z,6.70
2022-10-12T23:21:33.331Z,7.67
2022-10-12T23:24:02.215Z,7.53
2022-10-12T23:26:30.586Z,7.83
2022-10-12T23:28:58.999Z,6.97
2022-10-12T23:31:31.239Z,7.60
2022-10-12T23:34:01.811Z,6.50
2022-10-12T23:36:30.325Z,7.60
2022-10-12T23:39:01.786Z,6.80
2022-10-12T23:41:29.741Z,7.20
2022-10-12T23:43:57.859Z,6.37
2022-10-12T23:46:25.933Z,6.63
2022-10-12T23:48:53.882Z,6.60
2022-10-12T23:51:21.914Z,7.00
2022-10-12T23:53:50.093Z,6.60
2022-10-12T23:56:20.415Z,6.10
2022-10-12T23:58:48.640Z,5.80
